Time;durP1;ratioP1;P1;durP2;ratioP2;P2;SDS_P1;SDS_P2;PMS_P1;PMS_P2;Temp;Humidity;BMP_temperature;BMP_pressure;BME280_temperature;BME280_humidity;BME280_pressure;Samples;Min_cycle;Max_cycle;Signal;HPM_P1;HPM_P2
2021/07/03 00:01:15;;;;;;;9.02;5.40;;;15.80;99.90;;;;;;4963327;29;20031;-83
2021/07/03 00:03:41;;;;;;;10.02;5.03;;;15.80;99.90;;;;;;4986484;23;20014;-78
2021/07/03 00:06:07;;;;;;;12.90;5.78;;;16.00;99.90;;;;;;4979620;28;20035;-78
2021/07/03 00:08:33;;;;;;;10.10;5.43;;;15.80;99.90;;;;;;4980493;28;20710;-78
2021/07/03 00:11:00;;;;;;;10.80;5.90;;;15.80;99.90;;;;;;4997405;28;20014;-78
2021/07/03 00:13:26;;;;;;;8.98;5.03;;;15.80;99.90;;;;;;4965514;28;20067;-78
2021/07/03 00:15:53;;;;;;;8.13;4.53;;;15.70;99.90;;;;;;4975644;28;20030;-78
2021/07/03 00:18:18;;;;;;;8.50;4.30;;;15.70;99.90;;;;;;4975680;28;20046;-77
2021/07/03 00:20:44;;;;;;;9.40;5.15;;;15.70;99.90;;;;;;4975454;28;20019;-78
2021/07/03 00:23:10;;;;;;;8.88;5.20;;;15.70;99.90;;;;;;4975633;28;20050;-78
2021/07/03 00:25:37;;;;;;;8.13;4.80;;;15.70;99.90;;;;;;4976175;28;20353;-78
2021/07/03 00:28:03;;;;;;;9.82;5.32;;;15.60;99.90;;;;;;4976414;28;20489;-78
2021/07/03 00:30:28;;;;;;;9.68;5.38;;;15.50;99.90;;;;;;4996619;28;20113;-78
2021/07/03 00:32:54;;;;;;;9.38;5.50;;;15.50;99.90;;;;;;4994535;28;20459;-78
2021/07/03 00:35:20;;;;;;;10.77;5.95;;;15.40;99.90;;;;;;5010514;28;20018;-77
2021/07/03 00:37:46;;;;;;;9.90;5.65;;;15.40;99.90;;;;;;5000562;28;20031;-78
2021/07/03 00:40:12;;;;;;;10.90;5.65;;;15.40;99.90;;;;;;5011986;28;20030;-78
2021/07/03 00:42:38;;;;;;;11.27;6.07;;;15.40;99.90;;;;;;4995264;28;20027;-78
2021/07/03 00:45:06;;;;;;;11.30;5.68;;;15.30;99.90;;;;;;4993924;28;20427;-79
2021/07/03 00:47:32;;;;;;;8.80;5.07;;;15.40;99.90;;;;;;4991939;28;20504;-78
2021/07/03 00:49:58;;;;;;;9.75;5.93;;;15.30;99.90;;;;;;4975537;28;20023;-78
2021/07/03 00:52:24;;;;;;;8.98;5.25;;;15.30;99.90;;;;;;4975471;28;20027;-78
2021/07/03 00:54:50;;;;;;;9.75;5.28;;;15.30;99.90;;;;;;4976206;28;20030;-78
2021/07/03 00:57:16;;;;;;;10.43;5.78;;;15.30;99.90;;;;;;4974093;28;20058;-78
2021/07/03 00:59:44;;;;;;;11.00;5.88;;;15.20;99.90;;;;;;4975009;28;20050;-78
2021/07/03 01:02:12;;;;;;;8.95;5.50;;;15.20;99.90;;;;;;4975415;28;20434;-78
2021/07/03 01:04:38;;;;;;;10.25;5.90;;;15.20;99.90;;;;;;4987576;28;20039;-78
2021/07/03 01:07:05;;;;;;;10.60;6.00;;;15.20;99.90;;;;;;4974980;28;20370;-77
2021/07/03 01:09:31;;;;;;;11.95;6.72;;;15.20;99.90;;;;;;4978635;28;20053;-78
2021/07/03 01:11:57;;;;;;;11.40;5.60;;;15.10;99.90;;;;;;4979113;28;20373;-78
2021/07/03 01:14:23;;;;;;;10.75;5.82;;;15.10;99.90;;;;;;4978515;28;20129;-78
2021/07/03 01:16:49;;;;;;;9.45;5.70;;;15.10;99.90;;;;;;4977453;28;20027;-78
2021/07/03 01:19:16;;;;;;;9.70;5.82;;;15.00;99.90;;;;;;4978814;28;20034;-78
2021/07/03 01:21:52;;;;;;;10.07;6.05;;;15.00;99.90;;;;;;4979000;28;20027;-78
2021/07/03 01:24:19;;;;;;;10.05;6.03;;;15.00;99.90;;;;;;4979305;28;20034;-77
2021/07/03 01:26:51;;;;;;;9.90;5.95;;;15.00;99.90;;;;;;4978781;28;20046;-78
2021/07/03 01:29:18;;;;;;;11.05;5.50;;;15.00;99.90;;;;;;4978377;28;20023;-78
2021/07/03 01:31:45;;;;;;;11.13;6.65;;;15.00;99.90;;;;;;4978439;28;20049;-78
2021/07/03 01:34:13;;;;;;;10.10;5.97;;;14.90;99.90;;;;;;4995577;28;20504;-78
2021/07/03 01:36:39;;;;;;;12.35;6.22;;;14.90;99.90;;;;;;4991450;28;20030;-78
2021/07/03 01:39:06;;;;;;;9.48;5.53;;;15.00;99.90;;;;;;5006779;28;20033;-77
2021/07/03 01:41:32;;;;;;;9.40;5.57;;;14.90;99.90;;;;;;4995756;28;20030;-77
2021/07/03 01:43:58;;;;;;;11.95;5.47;;;14.90;99.90;;;;;;4977170;28;20039;-78
2021/07/03 01:46:23;;;;;;;9.68;5.82;;;14.90;99.90;;;;;;4978090;28;20022;-78
2021/07/03 01:48:49;;;;;;;11.45;5.53;;;14.90;99.90;;;;;;4978975;28;20764;-78
2021/07/03 01:51:15;;;;;;;11.07;5.78;;;14.90;99.90;;;;;;4993043;28;20027;-77
2021/07/03 01:53:41;;;;;;;8.98;5.55;;;14.80;99.90;;;;;;4977996;28;20029;-77
2021/07/03 01:56:08;;;;;;;11.27;5.88;;;14.90;99.90;;;;;;4977690;28;20098;-78
2021/07/03 01:58:35;;;;;;;10.50;5.38;;;14.80;99.90;;;;;;4977790;28;20114;-77
2021/07/03 02:01:01;;;;;;;10.20;5.85;;;14.80;99.90;;;;;;4976715;28;20034;-78
2021/07/03 02:03:26;;;;;;;13.10;6.28;;;14.70;99.90;;;;;;4976331;28;20031;-78
2021/07/03 02:05:52;;;;;;;10.20;5.78;;;14.60;99.90;;;;;;4978877;28;20034;-78
2021/07/03 02:08:19;;;;;;;10.10;5.78;;;14.60;99.90;;;;;;4997197;28;20049;-78
2021/07/03 02:10:45;;;;;;;10.95;5.68;;;14.60;99.90;;;;;;4996675;28;20481;-78
2021/07/03 02:13:10;;;;;;;11.05;6.00;;;14.60;99.90;;;;;;4997232;28;20086;-78
2021/07/03 02:15:36;;;;;;;11.73;6.03;;;14.60;99.90;;;;;;4978566;28;20027;-79
2021/07/03 02:18:02;;;;;;;10.45;6.22;;;14.50;99.90;;;;;;4977032;28;20111;-79
2021/07/03 02:20:28;;;;;;;10.10;5.50;;;14.50;99.90;;;;;;4976029;28;20031;-78
2021/07/03 02:22:54;;;;;;;10.57;5.70;;;14.50;99.90;;;;;;4977255;28;20034;-78
2021/07/03 02:25:20;;;;;;;11.40;6.40;;;14.40;99.90;;;;;;4977393;28;20560;-78
2021/07/03 02:27:46;;;;;;;10.40;6.18;;;14.50;99.90;;;;;;4975857;28;20117;-78
2021/07/03 02:30:14;;;;;;;11.10;5.38;;;14.50;99.90;;;;;;4977331;28;20436;-78
2021/07/03 02:32:43;;;;;;;9.48;5.47;;;14.50;99.90;;;;;;4977300;28;20038;-78
2021/07/03 02:35:11;;;;;;;9.70;6.03;;;14.50;99.90;;;;;;4977296;28;20026;-78
2021/07/03 02:37:37;;;;;;;10.73;5.78;;;14.40;99.90;;;;;;4981986;28;20045;-78
2021/07/03 02:40:05;;;;;;;9.95;5.57;;;14.50;99.90;;;;;;5013758;28;20033;-77
2021/07/03 02:42:31;;;;;;;9.50;5.30;;;14.40;99.90;;;;;;4981255;28;20054;-77
2021/07/03 02:44:56;;;;;;;9.60;5.38;;;14.40;99.90;;;;;;4977098;28;20541;-78
2021/07/03 02:47:22;;;;;;;10.50;5.75;;;14.40;99.90;;;;;;4976365;28;20027;-78
2021/07/03 02:49:48;;;;;;;12.45;6.03;;;14.40;99.90;;;;;;4976005;28;20441;-78
2021/07/03 02:52:13;;;;;;;12.10;5.68;;;14.40;99.90;;;;;;4976698;28;20027;-78
2021/07/03 02:54:39;;;;;;;10.27;5.40;;;14.40;99.90;;;;;;4991262;28;20515;-78
2021/07/03 02:57:05;;;;;;;11.60;6.13;;;14.40;99.90;;;;;;4976418;28;20031;-78
2021/07/03 02:59:30;;;;;;;11.15;6.28;;;14.40;99.90;;;;;;4976340;28;20033;-78
2021/07/03 03:01:56;;;;;;;9.45;5.88;;;14.40;99.90;;;;;;4976953;28;20477;-78
2021/07/03 03:04:22;;;;;;;9.95;5.80;;;14.40;99.90;;;;;;4976098;28;20477;-78
2021/07/03 03:06:47;;;;;;;9.70;5.65;;;14.30;99.90;;;;;;4976462;28;20106;-79
2021/07/03 03:11:44;;;;;;;11.18;6.15;;;14.20;99.90;;;;;;5000303;28;20050;-82
2021/07/03 03:14:09;;;;;;;9.13;5.53;;;14.20;99.90;;;;;;5013388;28;20022;-84
2021/07/03 03:16:35;;;;;;;10.18;5.25;;;14.20;99.90;;;;;;5017526;28;20034;-83
2021/07/03 03:19:01;;;;;;;10.13;5.68;;;14.20;99.90;;;;;;5017219;28;20029;-84
2021/07/03 03:21:27;;;;;;;10.70;5.60;;;14.20;99.90;;;;;;5013823;28;20101;-83
2021/07/03 03:23:53;;;;;;;10.55;5.65;;;14.20;99.90;;;;;;5027398;23;20057;-84
2021/07/03 03:26:19;;;;;;;11.32;5.70;;;14.20;99.90;;;;;;5004003;28;20048;-84
2021/07/03 03:28:44;;;;;;;9.38;5.60;;;14.10;99.90;;;;;;5003396;28;20022;-84
2021/07/03 03:31:10;;;;;;;8.48;5.20;;;14.10;99.90;;;;;;5002748;28;20034;-85
2021/07/03 03:33:36;;;;;;;11.80;5.43;;;14.10;99.90;;;;;;5009010;28;20023;-84
2021/07/03 03:36:03;;;;;;;9.85;5.60;;;14.20;99.90;;;;;;5019622;28;20049;-84
2021/07/03 03:38:29;;;;;;;9.50;5.85;;;14.10;99.90;;;;;;5004399;28;20057;-85
2021/07/03 03:40:54;;;;;;;9.18;5.43;;;14.10;99.90;;;;;;5004473;28;20034;-84
2021/07/03 03:43:20;;;;;;;12.55;5.55;;;14.10;99.90;;;;;;5023658;28;20036;-84
2021/07/03 03:45:46;;;;;;;9.52;5.43;;;14.00;99.90;;;;;;5021718;28;20030;-85
2021/07/03 03:48:11;;;;;;;8.65;5.18;;;14.00;99.90;;;;;;5023626;28;20034;-84
2021/07/03 03:50:38;;;;;;;9.60;5.47;;;13.90;99.90;;;;;;5014960;28;20027;-85
2021/07/03 03:53:04;;;;;;;9.75;5.72;;;13.90;99.90;;;;;;5003344;28;20093;-84
2021/07/03 03:55:30;;;;;;;9.35;6.10;;;13.80;99.90;;;;;;5002972;28;20034;-84
2021/07/03 03:57:55;;;;;;;12.23;6.47;;;13.90;99.90;;;;;;5006822;28;20091;-83
2021/07/03 04:00:22;;;;;;;11.40;6.68;;;13.90;99.90;;;;;;5014045;28;20053;-83
2021/07/03 04:02:47;;;;;;;9.35;5.65;;;13.90;99.90;;;;;;5022265;28;20082;-83
2021/07/03 04:05:14;;;;;;;10.95;6.07;;;13.90;99.90;;;;;;5020611;28;20053;-83
2021/07/03 04:07:40;;;;;;;12.88;6.28;;;13.90;99.90;;;;;;5017180;28;20045;-83
2021/07/03 04:10:07;;;;;;;10.45;5.63;;;13.90;99.90;;;;;;5020930;28;20037;-83
2021/07/03 04:12:34;;;;;;;12.57;6.53;;;13.90;99.90;;;;;;5020785;28;20036;-83
2021/07/03 04:14:59;;;;;;;12.10;6.25;;;14.00;99.90;;;;;;5014901;28;20030;-85
2021/07/03 04:17:26;;;;;;;10.65;5.82;;;13.90;99.90;;;;;;5020169;28;20030;-83
2021/07/03 04:19:52;;;;;;;10.48;6.50;;;13.90;99.90;;;;;;5020487;28;20114;-84
2021/07/03 04:22:17;;;;;;;11.85;6.10;;;14.00;99.90;;;;;;5021297;28;20037;-84
2021/07/03 04:24:43;;;;;;;10.63;6.20;;;14.10;99.90;;;;;;5017899;28;20049;-84
2021/07/03 04:27:09;;;;;;;11.45;6.35;;;14.10;99.90;;;;;;5017975;28;20077;-84
2021/07/03 04:29:35;;;;;;;9.75;5.10;;;14.20;99.90;;;;;;5016543;28;20026;-83
2021/07/03 04:32:01;;;;;;;10.95;6.43;;;14.30;99.90;;;;;;5017929;28;20038;-84
2021/07/03 04:34:27;;;;;;;11.02;6.93;;;14.40;99.90;;;;;;5018499;28;20045;-83
2021/07/03 04:36:53;;;;;;;11.43;6.70;;;14.40;99.90;;;;;;5001465;28;20030;-83
2021/07/03 04:39:19;;;;;;;10.15;5.97;;;14.50;99.90;;;;;;5012050;28;20106;-83
2021/07/03 04:41:44;;;;;;;10.90;5.90;;;14.50;99.90;;;;;;5013227;28;20053;-84
2021/07/03 04:44:11;;;;;;;11.70;6.32;;;14.60;99.90;;;;;;5019776;28;20026;-84
2021/07/03 04:46:36;;;;;;;10.45;6.22;;;14.70;99.90;;;;;;5001569;28;20030;-84
2021/07/03 04:49:03;;;;;;;13.10;6.80;;;14.70;99.90;;;;;;5001121;28;20555;-84
2021/07/03 04:51:30;;;;;;;12.27;6.03;;;14.60;99.90;;;;;;5001029;28;20030;-84
2021/07/03 04:53:55;;;;;;;13.20;6.40;;;14.50;99.90;;;;;;5000286;28;20030;-83
2021/07/03 04:56:22;;;;;;;10.43;6.10;;;14.40;99.90;;;;;;5013850;28;20329;-84
2021/07/03 04:58:47;;;;;;;9.77;5.95;;;14.60;99.90;;;;;;4997992;28;20039;-83
2021/07/03 05:01:13;;;;;;;11.02;6.32;;;14.70;99.90;;;;;;4998083;28;20035;-83
2021/07/03 05:03:39;;;;;;;13.07;5.22;;;14.90;99.90;;;;;;4998637;28;20467;-83
2021/07/03 05:06:04;;;;;;;10.20;6.28;;;15.00;99.90;;;;;;5000512;28;20035;-83
2021/07/03 05:08:30;;;;;;;12.05;5.82;;;15.00;99.90;;;;;;5015632;28;20030;-83
2021/07/03 05:10:56;;;;;;;10.80;6.53;;;14.90;99.90;;;;;;5004073;28;20744;-83
2021/07/03 05:13:21;;;;;;;9.63;5.57;;;14.90;99.90;;;;;;5017819;28;20037;-84
2021/07/03 05:15:47;;;;;;;10.48;6.20;;;14.90;99.90;;;;;;5018143;28;20233;-84
2021/07/03 05:18:13;;;;;;;11.48;6.00;;;14.80;99.90;;;;;;5017940;28;20030;-83
2021/07/03 05:20:38;;;;;;;10.30;5.93;;;15.00;99.90;;;;;;5010591;28;20026;-83
2021/07/03 05:23:04;;;;;;;10.20;6.15;;;14.80;99.90;;;;;;5013724;28;20037;-83
2021/07/03 05:25:30;;;;;;;10.02;5.88;;;15.00;99.90;;;;;;5020143;28;20033;-84
2021/07/03 05:27:55;;;;;;;11.07;5.70;;;15.10;99.90;;;;;;5005738;28;20038;-84
2021/07/03 05:30:22;;;;;;;9.40;5.80;;;15.30;99.90;;;;;;5014029;28;20030;-83
2021/07/03 05:32:47;;;;;;;10.63;6.20;;;15.50;99.90;;;;;;5015481;28;20045;-84
2021/07/03 05:35:13;;;;;;;10.25;5.68;;;15.50;99.90;;;;;;5008200;28;20035;-84
2021/07/03 05:37:40;;;;;;;10.48;6.40;;;15.80;99.90;;;;;;5010853;28;20059;-84
2021/07/03 05:40:09;;;;;;;11.73;6.32;;;15.70;99.90;;;;;;5019524;28;20026;-84
2021/07/03 05:42:35;;;;;;;10.13;6.20;;;15.70;99.90;;;;;;5001631;28;20113;-83
2021/07/03 05:45:00;;;;;;;12.02;6.65;;;15.80;99.90;;;;;;4999926;28;20116;-83
2021/07/03 05:47:26;;;;;;;11.82;6.95;;;15.90;99.90;;;;;;5000912;28;20110;-83
2021/07/03 05:49:52;;;;;;;9.73;6.00;;;16.00;99.90;;;;;;5006670;28;20455;-84
2021/07/03 05:52:17;;;;;;;11.38;6.32;;;16.10;99.90;;;;;;5018270;28;20061;-83
2021/07/03 05:54:43;;;;;;;9.93;5.95;;;16.20;99.90;;;;;;5018890;28;20034;-84
2021/07/03 05:57:09;;;;;;;9.90;5.78;;;16.30;99.90;;;;;;5003694;28;20038;-84
2021/07/03 05:59:34;;;;;;;8.38;5.38;;;16.40;99.90;;;;;;5004947;28;20494;-83
2021/07/03 06:02:00;;;;;;;10.65;6.25;;;16.40;99.90;;;;;;5003704;28;20030;-83
2021/07/03 06:04:25;;;;;;;9.80;6.00;;;16.40;99.90;;;;;;5003190;28;20032;-84
2021/07/03 06:06:51;;;;;;;10.82;6.38;;;16.30;99.90;;;;;;5010642;28;20037;-84
2021/07/03 06:09:17;;;;;;;9.57;6.18;;;16.30;99.90;;;;;;5023156;28;20387;-84
2021/07/03 06:11:42;;;;;;;9.80;5.88;;;16.40;99.90;;;;;;5008246;28;20027;-84
2021/07/03 06:14:08;;;;;;;9.45;5.57;;;16.50;99.90;;;;;;5003075;28;20028;-83
2021/07/03 06:16:34;;;;;;;9.75;5.53;;;16.70;99.90;;;;;;5004172;28;20026;-84
2021/07/03 06:19:01;;;;;;;9.30;5.50;;;16.90;99.90;;;;;;5002771;28;20023;-83
2021/07/03 06:21:27;;;;;;;8.57;5.40;;;17.00;99.90;;;;;;5003352;28;20038;-83
2021/07/03 06:23:52;;;;;;;11.32;5.45;;;17.20;99.90;;;;;;5004872;28;20026;-84
2021/07/03 06:26:20;;;;;;;8.55;5.15;;;17.00;99.90;;;;;;5003691;28;20030;-84
2021/07/03 06:28:46;;;;;;;10.63;5.28;;;17.20;99.90;;;;;;5003101;28;20084;-84
2021/07/03 06:31:12;;;;;;;7.88;4.97;;;17.50;99.90;;;;;;5002730;28;20030;-84
2021/07/03 06:33:38;;;;;;;8.98;5.18;;;17.30;99.90;;;;;;5003530;28;20034;-84
2021/07/03 06:36:04;;;;;;;7.55;4.53;;;17.20;99.90;;;;;;5004282;28;20313;-84
2021/07/03 06:38:29;;;;;;;9.63;5.05;;;17.40;99.90;;;;;;5002203;28;20026;-84
2021/07/03 06:40:55;;;;;;;7.65;4.65;;;17.40;99.90;;;;;;5010715;28;20560;-84
2021/07/03 06:43:21;;;;;;;10.02;4.80;;;17.50;99.90;;;;;;5021957;28;20026;-84
2021/07/03 06:45:46;;;;;;;8.18;4.05;;;17.60;99.90;;;;;;5006348;28;20035;-84
2021/07/03 06:48:12;;;;;;;10.07;4.38;;;17.80;99.90;;;;;;5004461;28;20511;-84
2021/07/03 06:50:38;;;;;;;9.35;5.63;;;18.00;99.90;;;;;;5003357;28;20018;-83
2021/07/03 06:53:03;;;;;;;8.13;4.35;;;17.90;99.90;;;;;;5005295;28;20019;-84
2021/07/03 06:55:29;;;;;;;7.85;4.75;;;18.00;99.90;;;;;;5005172;28;20110;-84
2021/07/03 06:57:54;;;;;;;9.00;4.85;;;18.10;99.90;;;;;;5003217;28;20040;-84
2021/07/03 07:00:20;;;;;;;8.77;4.88;;;18.20;99.90;;;;;;5002979;28;20080;-84
2021/07/03 07:02:47;;;;;;;9.52;4.43;;;18.30;99.90;;;;;;5004424;28;20026;-84
2021/07/03 07:05:13;;;;;;;6.70;3.75;;;18.50;99.90;;;;;;5002625;28;20034;-84
2021/07/03 07:07:39;;;;;;;7.38;4.68;;;18.70;99.90;;;;;;5012559;28;20033;-84
2021/07/03 07:10:05;;;;;;;7.22;4.47;;;18.90;99.90;;;;;;5015277;28;20042;-84
2021/07/03 07:12:31;;;;;;;8.25;4.40;;;18.90;99.90;;;;;;5013585;28;20058;-84
2021/07/03 07:14:57;;;;;;;7.28;4.45;;;18.80;99.90;;;;;;5004203;28;20049;-84
2021/07/03 07:17:23;;;;;;;9.13;4.57;;;18.80;99.90;;;;;;5017382;28;20026;-84
2021/07/03 07:19:49;;;;;;;7.18;4.00;;;18.90;99.90;;;;;;5002658;28;20030;-84
2021/07/03 07:22:15;;;;;;;7.90;4.88;;;19.00;99.90;;;;;;4999799;28;20037;-84
2021/07/03 07:24:41;;;;;;;6.53;4.07;;;19.20;99.90;;;;;;5005233;28;20083;-84
2021/07/03 07:27:07;;;;;;;8.68;4.50;;;19.30;99.90;;;;;;5012359;28;20391;-84
2021/07/03 07:29:34;;;;;;;8.60;4.22;;;19.50;99.90;;;;;;5004650;28;20109;-84
2021/07/03 07:32:14;;;;;;;6.57;3.85;;;19.50;99.90;;;;;;4971392;28;20047;-85
2021/07/03 07:34:40;;;;;;;7.47;3.90;;;19.50;99.90;;;;;;5004489;28;20053;-84
2021/07/03 07:37:06;;;;;;;7.53;4.47;;;19.60;99.90;;;;;;5005813;28;20079;-84
2021/07/03 07:39:32;;;;;;;6.82;3.92;;;19.70;99.90;;;;;;5019661;28;20026;-84
2021/07/03 07:41:58;;;;;;;7.22;4.43;;;19.80;99.90;;;;;;5011111;28;20387;-84
2021/07/03 07:44:23;;;;;;;9.52;4.40;;;20.00;99.90;;;;;;5024111;28;20022;-84
2021/07/03 07:46:49;;;;;;;6.45;3.80;;;20.20;99.90;;;;;;5006574;28;20045;-84
2021/07/03 07:49:14;;;;;;;7.53;4.03;;;20.30;99.90;;;;;;5002959;28;20026;-83
2021/07/03 07:51:40;;;;;;;6.15;3.97;;;20.50;99.90;;;;;;5003404;28;20026;-85
2021/07/03 07:54:06;;;;;;;7.88;4.00;;;20.60;99.90;;;;;;5003535;28;20522;-84
2021/07/03 07:56:31;;;;;;;6.00;3.53;;;20.80;99.90;;;;;;5003183;28;20034;-85
2021/07/03 07:58:57;;;;;;;6.07;3.90;;;21.00;99.90;;;;;;5002154;28;20058;-84
2021/07/03 08:01:24;;;;;;;6.07;3.60;;;21.00;99.90;;;;;;5004065;28;20076;-84
2021/07/03 08:03:50;;;;;;;6.47;4.00;;;21.10;99.90;;;;;;5005033;28;20026;-84
2021/07/03 08:06:15;;;;;;;7.30;4.10;;;21.20;99.90;;;;;;5003015;28;20030;-84
2021/07/03 08:08:41;;;;;;;6.88;4.00;;;21.40;99.90;;;;;;5022994;28;20025;-84
2021/07/03 08:11:06;;;;;;;8.77;4.07;;;21.60;99.90;;;;;;5008974;28;20038;-84
2021/07/03 08:13:32;;;;;;;6.45;3.83;;;21.70;99.90;;;;;;5017999;28;20117;-84
2021/07/03 08:15:58;;;;;;;6.50;3.83;;;21.70;99.90;;;;;;5008985;28;20031;-84
2021/07/03 08:18:24;;;;;;;7.15;3.88;;;21.80;99.90;;;;;;5017815;28;20053;-84
2021/07/03 08:20:50;;;;;;;7.22;4.18;;;21.80;99.90;;;;;;5014985;28;20041;-84
2021/07/03 08:23:16;;;;;;;7.05;3.78;;;22.00;99.90;;;;;;5010650;28;20033;-84
2021/07/03 08:25:42;;;;;;;7.20;3.80;;;22.10;99.90;;;;;;5022556;28;20022;-85
2021/07/03 08:28:08;;;;;;;6.47;3.65;;;22.10;99.90;;;;;;5017477;28;20034;-84
2021/07/03 08:30:34;;;;;;;6.82;4.15;;;22.10;99.90;;;;;;5001590;28;20026;-85
2021/07/03 08:33:00;;;;;;;7.78;4.05;;;22.20;99.90;;;;;;5018378;28;20021;-85
2021/07/03 08:35:26;;;;;;;6.50;3.80;;;22.50;99.90;;;;;;5022731;28;20034;-84
2021/07/03 08:37:51;;;;;;;6.63;3.95;;;22.10;99.90;;;;;;5018861;28;20038;-85
2021/07/03 08:40:18;;;;;;;5.18;3.30;;;22.20;99.90;;;;;;5002380;28;20023;-84
2021/07/03 08:42:45;;;;;;;5.72;3.70;;;22.40;99.90;;;;;;5017231;28;20511;-85
2021/07/03 08:45:11;;;;;;;7.45;3.92;;;22.70;99.90;;;;;;5002694;28;20033;-84
2021/07/03 08:47:43;;;;;;;6.50;3.38;;;22.70;99.90;;;;;;5017245;28;20038;-85
2021/07/03 08:50:11;;;;;;;5.47;3.55;;;22.70;99.90;;;;;;5018357;28;20034;-85
2021/07/03 08:52:37;;;;;;;5.97;3.58;;;22.60;99.90;;;;;;5021736;28;20026;-84
2021/07/03 08:55:19;;;;;;;8.80;3.55;;;22.70;99.90;;;;;;5017891;28;20054;-84
2021/07/03 08:57:49;;;;;;;6.32;3.47;;;22.30;99.90;;;;;;5002184;28;20026;-83
2021/07/03 09:00:20;;;;;;;5.88;3.20;;;22.20;99.90;;;;;;5001179;28;20023;-84
2021/07/03 09:02:46;;;;;;;6.00;2.95;;;22.20;99.90;;;;;;4999348;28;20084;-85
2021/07/03 09:05:24;;;;;;;9.23;3.55;;;22.40;99.90;;;;;;4998542;28;20112;-84
2021/07/03 09:07:55;;;;;;;5.50;3.40;;;22.60;99.90;;;;;;5011208;28;20594;-84
2021/07/03 09:10:22;;;;;;;5.03;2.92;;;22.70;99.90;;;;;;5018231;28;20459;-84
2021/07/03 09:12:52;;;;;;;5.78;3.58;;;22.70;99.90;;;;;;5006750;28;20062;-85
2021/07/03 09:15:21;;;;;;;5.35;3.05;;;22.90;99.90;;;;;;4998229;28;20089;-85
2021/07/03 09:17:53;;;;;;;5.10;2.80;;;23.00;99.90;;;;;;4996058;28;20062;-85
2021/07/03 09:20:33;;;;;;;7.88;3.38;;;23.20;99.90;;;;;;4997144;28;20491;-84
2021/07/03 09:23:13;;;;;;;6.05;2.97;;;23.20;98.20;;;;;;5006215;28;20399;-84
2021/07/03 09:25:44;;;;;;;5.53;2.85;;;23.30;99.20;;;;;;5019491;23;20054;-84
2021/07/03 09:28:17;;;;;;;4.43;2.65;;;23.40;98.30;;;;;;5002517;28;20510;-84
2021/07/03 09:30:49;;;;;;;4.75;2.50;;;23.60;97.60;;;;;;5011496;28;20034;-84
2021/07/03 09:33:24;;;;;;;4.65;2.55;;;23.90;97.10;;;;;;5004652;28;20391;-85
2021/07/03 09:36:03;;;;;;;4.43;2.25;;;24.30;97.20;;;;;;4996989;28;20527;-85
2021/07/03 09:38:46;;;;;;;5.95;2.47;;;24.10;94.30;;;;;;4963457;28;21464;-83
2021/07/03 09:41:18;;;;;;;5.75;2.88;;;23.90;95.20;;;;;;5014242;28;20014;-83
2021/07/03 09:43:50;;;;;;;5.93;2.85;;;23.80;95.10;;;;;;5001403;28;20110;-84
2021/07/03 09:46:30;;;;;;;6.78;2.67;;;23.80;94.50;;;;;;4996376;28;20121;-84
2021/07/03 09:48:59;;;;;;;5.53;2.50;;;24.10;95.10;;;;;;4996220;28;20025;-84
2021/07/03 09:51:30;;;;;;;6.25;2.97;;;24.10;94.90;;;;;;4997659;28;20273;-84
2021/07/03 09:53:57;;;;;;;5.30;3.00;;;24.20;94.80;;;;;;5014068;28;20041;-84
2021/07/03 09:56:24;;;;;;;5.45;2.50;;;24.10;94.20;;;;;;5013894;28;20126;-84
2021/07/03 09:58:50;;;;;;;5.68;2.58;;;24.20;93.30;;;;;;4984878;28;20019;-85
2021/07/03 10:01:16;;;;;;;5.43;2.78;;;24.10;92.70;;;;;;4974888;28;20030;-85
2021/07/03 10:03:42;;;;;;;5.15;2.88;;;24.40;92.20;;;;;;4976812;28;20023;-84
2021/07/03 10:06:12;;;;;;;4.20;2.58;;;24.90;92.70;;;;;;4959676;28;20453;-85
2021/07/03 10:08:41;;;;;;;6.57;2.90;;;25.00;93.50;;;;;;4983949;28;20476;-85
2021/07/03 10:11:09;;;;;;;5.43;2.30;;;24.90;93.50;;;;;;5013443;28;20021;-84
2021/07/03 10:13:35;;;;;;;6.32;2.40;;;24.50;91.60;;;;;;5013567;28;20431;-84
2021/07/03 10:16:04;;;;;;;4.50;2.30;;;24.20;90.30;;;;;;4978626;28;20081;-84
2021/07/03 10:18:30;;;;;;;4.97;2.53;;;24.60;90.20;;;;;;4957013;28;20114;-84
2021/07/03 10:21:06;;;;;;;5.80;2.88;;;24.30;90.30;;;;;;4972893;28;20018;-84
2021/07/03 10:23:37;;;;;;;4.95;2.67;;;24.60;89.90;;;;;;4969567;28;20164;-84
2021/07/03 10:26:03;;;;;;;5.18;2.63;;;25.10;88.80;;;;;;4974947;28;20575;-84
2021/07/03 10:28:35;;;;;;;5.13;2.90;;;25.30;87.80;;;;;;4974406;28;20110;-84
2021/07/03 10:31:19;;;;;;;4.53;2.20;;;25.70;87.40;;;;;;4972740;28;20030;-83
2021/07/03 10:33:48;;;;;;;3.83;2.20;;;25.70;88.30;;;;;;4974496;28;20038;-84
2021/07/03 10:36:31;;;;;;;4.57;2.70;;;25.90;85.60;;;;;;4974340;28;20588;-85
2021/07/03 10:38:59;;;;;;;5.03;2.67;;;25.90;84.30;;;;;;4973412;28;20057;-85
2021/07/03 10:41:27;;;;;;;5.00;2.40;;;25.70;88.70;;;;;;4970493;28;20034;-84
2021/07/03 10:44:05;;;;;;;4.68;2.30;;;26.10;88.00;;;;;;5008970;28;20030;-82
2021/07/03 10:46:41;;;;;;;3.47;2.00;;;26.10;80.40;;;;;;4995898;28;20403;-86
2021/07/03 10:49:12;;;;;;;4.10;2.15;;;25.90;82.00;;;;;;4981831;28;20035;-87
2021/07/03 10:51:42;;;;;;;3.70;2.08;;;25.50;82.00;;;;;;4974137;28;20450;-87
2021/07/03 10:54:23;;;;;;;4.40;2.20;;;25.80;82.70;;;;;;4956692;28;20030;-87
2021/07/03 10:56:51;;;;;;;4.18;2.15;;;25.90;81.90;;;;;;4961983;28;20041;-87
2021/07/03 10:59:25;;;;;;;4.50;2.35;;;26.40;81.50;;;;;;4975696;28;20030;-87
2021/07/03 11:01:51;;;;;;;4.15;2.38;;;26.60;81.70;;;;;;4975943;28;20034;-86
2021/07/03 11:04:21;;;;;;;6.97;2.15;;;26.90;76.60;;;;;;4974471;28;20022;-87
2021/07/03 11:06:53;;;;;;;3.25;1.88;;;27.20;77.80;;;;;;4972353;28;20030;-88
2021/07/03 11:09:26;;;;;;;4.88;2.22;;;27.60;77.20;;;;;;4973457;28;20033;-87
2021/07/03 11:11:51;;;;;;;4.80;2.10;;;27.60;75.60;;;;;;4953695;28;20038;-87
2021/07/03 11:14:19;;;;;;;6.65;1.95;;;27.90;75.30;;;;;;4956378;28;20023;-87
2021/07/03 11:16:58;;;;;;;4.20;2.40;;;28.00;75.60;;;;;;4956003;28;20030;-87
2021/07/03 11:19:26;;;;;;;3.60;1.70;;;28.10;75.50;;;;;;4973825;28;20030;-87
2021/07/03 11:21:52;;;;;;;3.65;2.30;;;28.10;72.10;;;;;;4955947;28;20033;-88
2021/07/03 11:24:18;;;;;;;3.58;2.08;;;28.10;73.50;;;;;;4991521;28;20030;-88
2021/07/03 11:26:44;;;;;;;3.25;2.03;;;27.70;75.00;;;;;;4976225;28;20040;-88
2021/07/03 11:29:10;;;;;;;4.57;1.98;;;27.80;72.00;;;;;;4972953;28;20030;-88
2021/07/03 11:31:35;;;;;;;4.03;2.00;;;28.10;70.20;;;;;;4957033;28;20076;-88
2021/07/03 11:34:01;;;;;;;3.85;2.20;;;28.40;71.00;;;;;;4974296;28;20106;-88
2021/07/03 11:36:27;;;;;;;3.45;1.90;;;28.40;71.20;;;;;;4976607;28;20030;-87
2021/07/03 11:38:56;;;;;;;6.18;2.20;;;28.60;68.80;;;;;;4975343;28;20035;-88
2021/07/03 11:41:23;;;;;;;3.47;2.00;;;28.60;67.60;;;;;;4976050;28;20032;-88
2021/07/03 11:44:01;;;;;;;4.18;2.13;;;28.40;69.00;;;;;;4988672;28;20029;-87
2021/07/03 11:46:27;;;;;;;4.55;2.35;;;28.60;69.50;;;;;;4976588;28;20040;-88
2021/07/03 11:48:52;;;;;;;4.63;2.20;;;29.10;71.40;;;;;;4955391;28;20125;-88
2021/07/03 11:51:20;;;;;;;3.15;1.90;;;29.50;69.30;;;;;;4972280;28;20042;-88
2021/07/03 11:53:51;;;;;;;4.57;1.90;;;29.80;67.60;;;;;;4972557;28;20500;-88
2021/07/03 11:56:17;;;;;;;4.30;2.13;;;29.60;67.20;;;;;;4973505;28;20035;-88
2021/07/03 11:58:43;;;;;;;3.28;1.80;;;29.00;65.80;;;;;;4972014;28;20050;-88
2021/07/03 12:01:16;;;;;;;6.97;2.25;;;29.10;65.80;;;;;;4973917;28;20019;-87
2021/07/03 12:03:47;;;;;;;3.95;1.88;;;29.50;65.20;;;;;;4977036;28;20164;-88
2021/07/03 12:06:21;;;;;;;4.07;1.90;;;29.30;63.80;;;;;;4978295;28;20022;-87
2021/07/03 12:08:48;;;;;;;4.93;2.22;;;28.70;66.10;;;;;;4995218;28;20033;-88
2021/07/03 12:11:16;;;;;;;3.75;2.03;;;28.50;64.00;;;;;;4980399;28;20019;-88
2021/07/03 12:13:45;;;;;;;4.72;1.70;;;28.40;66.70;;;;;;4976040;28;20033;-88
2021/07/03 12:16:12;;;;;;;3.28;2.00;;;28.20;67.90;;;;;;4977031;28;20026;-88
2021/07/03 12:18:40;;;;;;;4.80;1.95;;;28.40;65.30;;;;;;4976439;28;20031;-87
2021/07/03 12:21:17;;;;;;;4.22;1.80;;;28.50;66.20;;;;;;4958863;28;20117;-88
2021/07/03 12:23:45;;;;;;;3.80;2.03;;;28.90;67.90;;;;;;4989290;28;20109;-88
2021/07/03 12:26:11;;;;;;;3.97;1.85;;;29.60;68.30;;;;;;4975487;28;20488;-88
2021/07/03 12:28:38;;;;;;;3.45;2.00;;;29.60;65.40;;;;;;4974127;28;20076;-88
2021/07/03 12:31:11;;;;;;;4.18;1.90;;;30.00;64.50;;;;;;4979383;28;20030;-88
2021/07/03 12:33:39;;;;;;;3.28;1.90;;;30.40;63.80;;;;;;4955156;28;20058;-88
2021/07/03 12:36:19;;;;;;;4.07;2.08;;;30.70;62.70;;;;;;4971259;28;20484;-88
2021/07/03 12:38:46;;;;;;;3.22;1.70;;;29.80;61.20;;;;;;4970497;28;20026;-88
2021/07/03 12:41:12;;;;;;;4.18;1.83;;;30.00;62.00;;;;;;4955034;28;20061;-88
2021/07/03 12:43:38;;;;;;;3.55;1.90;;;29.90;61.30;;;;;;4955206;28;20027;-89
2021/07/03 12:46:06;;;;;;;3.92;1.98;;;30.30;61.10;;;;;;4954892;28;20033;-88